sensor_id;sensor_type;location;lat;lon;timestamp;pressure;altitude;pressure_sealevel;temperature;humidity
43804;BME280;29430;52.924;-2.388;2023-07-30T00:04:31;98217.25;;;15.03;84.41
43804;BME280;29430;52.924;-2.388;2023-07-30T00:09:23;98231.47;;;15.00;84.21
43804;BME280;29430;52.924;-2.388;2023-07-30T00:14:15;98229.31;;;14.97;84.83
43804;BME280;29430;52.924;-2.388;2023-07-30T00:19:06;98229.59;;;14.90;85.50
43804;BME280;29430;52.924;-2.388;2023-07-30T00:23:58;98224.75;;;14.82;85.52
43804;BME280;29430;52.924;-2.388;2023-07-30T00:28:50;98217.41;;;14.77;87.17
43804;BME280;29430;52.924;-2.388;2023-07-30T00:33:42;98234.34;;;14.74;87.33
43804;BME280;29430;52.924;-2.388;2023-07-30T00:38:33;98230.53;;;14.75;87.43
43804;BME280;29430;52.924;-2.388;2023-07-30T00:43:25;98234.31;;;14.79;88.40
43804;BME280;29430;52.924;-2.388;2023-07-30T00:48:17;98244.41;;;14.79;88.25
43804;BME280;29430;52.924;-2.388;2023-07-30T00:53:11;98234.88;;;14.81;89.82
43804;BME280;29430;52.924;-2.388;2023-07-30T00:58:05;98232.66;;;14.83;91.33
43804;BME280;29430;52.924;-2.388;2023-07-30T01:02:57;98223.94;;;14.81;90.85
43804;BME280;29430;52.924;-2.388;2023-07-30T01:07:49;98231.59;;;14.79;90.75
43804;BME280;29430;52.924;-2.388;2023-07-30T01:12:42;98232.16;;;14.76;89.98
43804;BME280;29430;52.924;-2.388;2023-07-30T01:17:35;98227.53;;;14.72;89.53
43804;BME280;29430;52.924;-2.388;2023-07-30T01:22:29;98220.19;;;14.67;88.81
43804;BME280;29430;52.924;-2.388;2023-07-30T01:27:25;98230.03;;;14.58;89.09
43804;BME280;29430;52.924;-2.388;2023-07-30T01:32:20;98245.34;;;14.54;89.08
43804;BME280;29430;52.924;-2.388;2023-07-30T01:37:16;98241.28;;;14.46;89.60
43804;BME280;29430;52.924;-2.388;2023-07-30T01:42:11;98251.41;;;14.40;89.76
43804;BME280;29430;52.924;-2.388;2023-07-30T01:47:03;98267.78;;;14.35;89.96
43804;BME280;29430;52.924;-2.388;2023-07-30T01:51:55;98268.63;;;14.30;90.33
43804;BME280;29430;52.924;-2.388;2023-07-30T01:56:47;98263.44;;;14.24;90.24
43804;BME280;29430;52.924;-2.388;2023-07-30T02:01:41;98259.94;;;14.18;91.64
43804;BME280;29430;52.924;-2.388;2023-07-30T02:06:32;98264.88;;;14.11;91.81
43804;BME280;29430;52.924;-2.388;2023-07-30T02:11:24;98262.97;;;14.06;91.73
43804;BME280;29430;52.924;-2.388;2023-07-30T02:16:16;98271.97;;;14.02;92.33
43804;BME280;29430;52.924;-2.388;2023-07-30T02:21:08;98270.88;;;13.97;92.54
43804;BME280;29430;52.924;-2.388;2023-07-30T02:25:59;98278.81;;;13.94;93.03
43804;BME280;29430;52.924;-2.388;2023-07-30T02:30:51;98263.53;;;13.93;92.91
43804;BME280;29430;52.924;-2.388;2023-07-30T02:35:43;98264.91;;;13.90;92.56
43804;BME280;29430;52.924;-2.388;2023-07-30T02:40:35;98275.25;;;13.88;92.59
43804;BME280;29430;52.924;-2.388;2023-07-30T02:45:27;98273.09;;;13.90;92.50
43804;BME280;29430;52.924;-2.388;2023-07-30T02:50:19;98277.72;;;13.95;92.40
43804;BME280;29430;52.924;-2.388;2023-07-30T02:55:11;98270.88;;;13.97;92.36
43804;BME280;29430;52.924;-2.388;2023-07-30T03:00:03;98265.72;;;13.96;92.16
43804;BME280;29430;52.924;-2.388;2023-07-30T03:04:56;98270.59;;;13.99;92.89
43804;BME280;29430;52.924;-2.388;2023-07-30T03:09:48;98262.69;;;13.97;93.82
43804;BME280;29430;52.924;-2.388;2023-07-30T03:14:40;98281.25;;;13.95;93.68
43804;BME280;29430;52.924;-2.388;2023-07-30T03:19:32;98277.16;;;13.93;93.71
43804;BME280;29430;52.924;-2.388;2023-07-30T03:24:23;98274.72;;;13.91;92.70
43804;BME280;29430;52.924;-2.388;2023-07-30T03:29:15;98272.53;;;13.88;92.27
43804;BME280;29430;52.924;-2.388;2023-07-30T03:34:07;98278.81;;;13.84;92.83
43804;BME280;29430;52.924;-2.388;2023-07-30T03:38:59;98271.47;;;13.79;93.66
43804;BME280;29430;52.924;-2.388;2023-07-30T03:43:51;98277.72;;;13.74;94.56
43804;BME280;29430;52.924;-2.388;2023-07-30T03:48:42;98285.91;;;13.69;94.88
43804;BME280;29430;52.924;-2.388;2023-07-30T03:53:34;98291.38;;;13.64;95.08
43804;BME280;29430;52.924;-2.388;2023-07-30T03:58:26;98304.72;;;13.60;95.83
43804;BME280;29430;52.924;-2.388;2023-07-30T04:03:17;98301.44;;;13.58;95.80
43804;BME280;29430;52.924;-2.388;2023-07-30T04:08:09;98305.00;;;13.54;96.23
43804;BME280;29430;52.924;-2.388;2023-07-30T04:13:01;98313.72;;;13.51;97.20
43804;BME280;29430;52.924;-2.388;2023-07-30T04:17:53;98305.00;;;13.54;97.34
43804;BME280;29430;52.924;-2.388;2023-07-30T04:22:45;98296.28;;;13.52;98.29
43804;BME280;29430;52.924;-2.388;2023-07-30T04:27:37;98312.91;;;13.55;98.39
43804;BME280;29430;52.924;-2.388;2023-07-30T04:32:28;98312.63;;;13.52;99.10
43804;BME280;29430;52.924;-2.388;2023-07-30T04:37:20;98317.78;;;13.48;99.35
43804;BME280;29430;52.924;-2.388;2023-07-30T04:42:12;98319.69;;;13.48;99.07
43804;BME280;29430;52.924;-2.388;2023-07-30T04:47:04;98329.50;;;13.43;99.34
43804;BME280;29430;52.924;-2.388;2023-07-30T04:51:56;98327.88;;;13.42;99.39
43804;BME280;29430;52.924;-2.388;2023-07-30T04:56:48;98327.56;;;13.39;100.00
43804;BME280;29430;52.924;-2.388;2023-07-30T05:01:39;98319.69;;;13.37;100.00
43804;BME280;29430;52.924;-2.388;2023-07-30T05:06:31;98335.75;;;13.39;100.00
43804;BME280;29430;52.924;-2.388;2023-07-30T05:11:24;98347.22;;;13.46;100.00
43804;BME280;29430;52.924;-2.388;2023-07-30T05:16:16;98330.31;;;13.54;100.00
43804;BME280;29430;52.924;-2.388;2023-07-30T05:21:07;98331.69;;;13.57;100.00
43804;BME280;29430;52.924;-2.388;2023-07-30T05:25:59;98322.16;;;13.54;99.04
43804;BME280;29430;52.924;-2.388;2023-07-30T05:30:51;98334.69;;;13.55;98.35
43804;BME280;29430;52.924;-2.388;2023-07-30T05:35:42;98337.69;;;13.59;97.73
43804;BME280;29430;52.924;-2.388;2023-07-30T05:40:35;98328.69;;;13.58;97.42
43804;BME280;29430;52.924;-2.388;2023-07-30T05:45:30;98340.13;;;13.60;96.91
43804;BME280;29430;52.924;-2.388;2023-07-30T05:50:22;98345.59;;;13.76;97.26
43804;BME280;29430;52.924;-2.388;2023-07-30T05:55:13;98352.69;;;14.03;95.74
43804;BME280;29430;52.924;-2.388;2023-07-30T06:00:06;98359.69;;;14.35;95.30
43804;BME280;29430;52.924;-2.388;2023-07-30T06:04:57;98373.03;;;14.62;92.41
43804;BME280;29430;52.924;-2.388;2023-07-30T06:09:49;98347.34;;;14.78;91.34
43804;BME280;29430;52.924;-2.388;2023-07-30T06:14:41;98360.22;;;15.22;90.54
43804;BME280;29430;52.924;-2.388;2023-07-30T06:19:33;98360.03;;;15.53;87.31
43804;BME280;29430;52.924;-2.388;2023-07-30T06:24:25;98364.09;;;15.96;85.74
43804;BME280;29430;52.924;-2.388;2023-07-30T06:29:16;98366.38;;;16.18;84.43
43804;BME280;29430;52.924;-2.388;2023-07-30T06:34:08;98369.97;;;16.13;82.39
43804;BME280;29430;52.924;-2.388;2023-07-30T06:39:00;98371.44;;;16.00;83.31
43804;BME280;29430;52.924;-2.388;2023-07-30T06:43:52;98374.75;;;15.97;83.99
43804;BME280;29430;52.924;-2.388;2023-07-30T06:48:43;98376.63;;;16.31;84.59
43804;BME280;29430;52.924;-2.388;2023-07-30T06:53:35;98378.41;;;17.18;80.58
43804;BME280;29430;52.924;-2.388;2023-07-30T06:58:27;98395.78;;;17.52;77.97
43804;BME280;29430;52.924;-2.388;2023-07-30T07:03:18;98382.19;;;17.61;78.33
43804;BME280;29430;52.924;-2.388;2023-07-30T07:08:10;98376.78;;;18.27;75.55
43804;BME280;29430;52.924;-2.388;2023-07-30T07:13:02;98380.06;;;18.56;71.54
43804;BME280;29430;52.924;-2.388;2023-07-30T07:17:54;98397.03;;;18.31;71.59
43804;BME280;29430;52.924;-2.388;2023-07-30T07:22:45;98403.09;;;18.14;73.53
43804;BME280;29430;52.924;-2.388;2023-07-30T07:27:37;98394.31;;;18.12;73.20
43804;BME280;29430;52.924;-2.388;2023-07-30T07:32:29;98400.22;;;18.52;71.89
43804;BME280;29430;52.924;-2.388;2023-07-30T07:37:21;98404.16;;;18.92;70.84
43804;BME280;29430;52.924;-2.388;2023-07-30T07:42:12;98396.91;;;18.96;70.08
43804;BME280;29430;52.924;-2.388;2023-07-30T07:47:04;98408.44;;;18.85;69.67
43804;BME280;29430;52.924;-2.388;2023-07-30T07:51:56;98415.91;;;18.65;70.40
43804;BME280;29430;52.924;-2.388;2023-07-30T07:56:48;98412.06;;;18.80;69.45
43804;BME280;29430;52.924;-2.388;2023-07-30T08:01:39;98428.97;;;18.87;68.89
43804;BME280;29430;52.924;-2.388;2023-07-30T08:06:32;98406.47;;;19.27;67.69
43804;BME280;29430;52.924;-2.388;2023-07-30T08:11:23;98408.88;;;20.15;65.69
43804;BME280;29430;52.924;-2.388;2023-07-30T08:16:15;98401.88;;;20.95;62.95
43804;BME280;29430;52.924;-2.388;2023-07-30T08:21:07;98416.00;;;21.68;60.95
43804;BME280;29430;52.924;-2.388;2023-07-30T08:25:59;98415.16;;;21.59;57.64
43804;BME280;29430;52.924;-2.388;2023-07-30T08:30:50;98416.50;;;21.13;57.43
43804;BME280;29430;52.924;-2.388;2023-07-30T08:35:42;98418.75;;;21.02;59.45
43804;BME280;29430;52.924;-2.388;2023-07-30T08:40:34;98423.25;;;20.89;58.07
43804;BME280;29430;52.924;-2.388;2023-07-30T08:45:25;98418.56;;;20.98;59.76
43804;BME280;29430;52.924;-2.388;2023-07-30T08:50:17;98424.53;;;21.40;60.11
43804;BME280;29430;52.924;-2.388;2023-07-30T08:55:10;98426.88;;;21.82;57.42
43804;BME280;29430;52.924;-2.388;2023-07-30T09:04:56;98431.50;;;21.46;56.11
43804;BME280;29430;52.924;-2.388;2023-07-30T09:09:50;98423.78;;;21.08;57.40
43804;BME280;29430;52.924;-2.388;2023-07-30T09:14:42;98421.06;;;20.77;58.87
43804;BME280;29430;52.924;-2.388;2023-07-30T09:19:37;98433.47;;;20.88;61.11
43804;BME280;29430;52.924;-2.388;2023-07-30T09:24:29;98423.94;;;21.52;58.13
43804;BME280;29430;52.924;-2.388;2023-07-30T09:29:21;98437.56;;;21.75;57.66
43804;BME280;29430;52.924;-2.388;2023-07-30T09:34:19;98434.97;;;21.61;56.78
43804;BME280;29430;52.924;-2.388;2023-07-30T09:39:23;98432.25;;;21.21;56.65
43804;BME280;29430;52.924;-2.388;2023-07-30T09:44:20;98431.72;;;21.01;58.22
43804;BME280;29430;52.924;-2.388;2023-07-30T09:49:12;98443.47;;;21.33;57.23
43804;BME280;29430;52.924;-2.388;2023-07-30T09:54:06;98437.28;;;21.94;55.74
43804;BME280;29430;52.924;-2.388;2023-07-30T09:58:58;98450.28;;;22.37;53.78
43804;BME280;29430;52.924;-2.388;2023-07-30T10:03:50;98451.22;;;22.24;53.29
43804;BME280;29430;52.924;-2.388;2023-07-30T10:08:43;98453.97;;;22.15;53.89
43804;BME280;29430;52.924;-2.388;2023-07-30T10:13:37;98453.38;;;22.35;53.60
43804;BME280;29430;52.924;-2.388;2023-07-30T10:18:39;98457.25;;;22.17;53.49
43804;BME280;29430;52.924;-2.388;2023-07-30T10:23:33;98464.06;;;21.85;53.73
43804;BME280;29430;52.924;-2.388;2023-07-30T10:28:32;98453.16;;;21.79;53.22
43804;BME280;29430;52.924;-2.388;2023-07-30T10:33:47;98447.16;;;21.60;54.22
43804;BME280;29430;52.924;-2.388;2023-07-30T10:38:40;98466.81;;;21.27;54.64
43804;BME280;29430;52.924;-2.388;2023-07-30T10:43:40;98471.50;;;21.18;56.08
43804;BME280;29430;52.924;-2.388;2023-07-30T10:48:40;98472.03;;;21.28;55.37
43804;BME280;29430;52.924;-2.388;2023-07-30T10:53:32;98480.09;;;21.16;54.61
43804;BME280;29430;52.924;-2.388;2023-07-30T10:58:24;98462.75;;;21.16;56.44
43804;BME280;29430;52.924;-2.388;2023-07-30T11:03:17;98470.91;;;21.29;54.89
43804;BME280;29430;52.924;-2.388;2023-07-30T11:08:09;98475.03;;;21.09;55.46
43804;BME280;29430;52.924;-2.388;2023-07-30T11:13:00;98496.88;;;20.97;55.73
43804;BME280;29430;52.924;-2.388;2023-07-30T11:17:52;98490.59;;;20.74;57.45
43804;BME280;29430;52.924;-2.388;2023-07-30T11:22:44;98491.22;;;20.71;57.74
43804;BME280;29430;52.924;-2.388;2023-07-30T11:27:49;98487.63;;;20.93;58.91
43804;BME280;29430;52.924;-2.388;2023-07-30T11:32:44;98492.91;;;21.12;55.91
43804;BME280;29430;52.924;-2.388;2023-07-30T11:37:40;98492.72;;;21.08;55.62
43804;BME280;29430;52.924;-2.388;2023-07-30T11:42:35;98506.16;;;21.01;55.70
43804;BME280;29430;52.924;-2.388;2023-07-30T11:47:27;98496.97;;;20.83;54.91
43804;BME280;29430;52.924;-2.388;2023-07-30T11:52:20;98508.31;;;20.82;55.87
43804;BME280;29430;52.924;-2.388;2023-07-30T11:57:11;98502.47;;;20.83;56.26
43804;BME280;29430;52.924;-2.388;2023-07-30T12:02:03;98504.13;;;20.84;56.83
43804;BME280;29430;52.924;-2.388;2023-07-30T12:06:55;98495.22;;;20.87;56.29
43804;BME280;29430;52.924;-2.388;2023-07-30T12:11:49;98499.38;;;20.76;55.53
43804;BME280;29430;52.924;-2.388;2023-07-30T12:16:41;98496.16;;;20.60;55.88
43804;BME280;29430;52.924;-2.388;2023-07-30T12:21:34;98504.00;;;20.44;57.87
43804;BME280;29430;52.924;-2.388;2023-07-30T12:26:29;98508.94;;;20.33;56.96
43804;BME280;29430;52.924;-2.388;2023-07-30T12:31:21;98491.03;;;20.22;56.74
43804;BME280;29430;52.924;-2.388;2023-07-30T12:36:13;98497.22;;;20.05;56.20
43804;BME280;29430;52.924;-2.388;2023-07-30T12:41:05;98513.78;;;20.14;56.67
43804;BME280;29430;52.924;-2.388;2023-07-30T12:45:57;98498.06;;;20.28;57.77
43804;BME280;29430;52.924;-2.388;2023-07-30T12:50:49;98503.50;;;20.42;56.43
43804;BME280;29430;52.924;-2.388;2023-07-30T12:55:40;98494.47;;;20.50;54.26
43804;BME280;29430;52.924;-2.388;2023-07-30T13:00:33;98501.31;;;20.53;54.36
43804;BME280;29430;52.924;-2.388;2023-07-30T13:05:26;98511.06;;;20.59;53.90
43804;BME280;29430;52.924;-2.388;2023-07-30T13:10:18;98498.97;;;20.46;53.00
43804;BME280;29430;52.924;-2.388;2023-07-30T13:15:09;98498.09;;;20.37;53.51
43804;BME280;29430;52.924;-2.388;2023-07-30T13:20:02;98504.84;;;20.31;55.08
43804;BME280;29430;52.924;-2.388;2023-07-30T13:24:53;98510.63;;;20.43;54.82
43804;BME280;29430;52.924;-2.388;2023-07-30T13:29:45;98521.16;;;20.41;54.47
43804;BME280;29430;52.924;-2.388;2023-07-30T13:34:38;98511.38;;;20.35;54.04
43804;BME280;29430;52.924;-2.388;2023-07-30T13:39:30;98509.78;;;20.20;54.45
43804;BME280;29430;52.924;-2.388;2023-07-30T13:44:22;98517.47;;;20.09;55.29
43804;BME280;29430;52.924;-2.388;2023-07-30T13:49:14;98525.78;;;19.95;56.36
43804;BME280;29430;52.924;-2.388;2023-07-30T13:54:05;98519.97;;;19.83;56.38
43804;BME280;29430;52.924;-2.388;2023-07-30T13:58:59;98531.00;;;19.55;58.75
43804;BME280;29430;52.924;-2.388;2023-07-30T14:03:51;98532.81;;;19.32;60.39
43804;BME280;29430;52.924;-2.388;2023-07-30T14:08:43;98545.84;;;19.12;62.25
43804;BME280;29430;52.924;-2.388;2023-07-30T14:13:34;98532.47;;;18.92;64.69
43804;BME280;29430;52.924;-2.388;2023-07-30T14:18:26;98545.50;;;18.86;67.70
43804;BME280;29430;52.924;-2.388;2023-07-30T14:23:18;98536.44;;;18.67;69.00
43804;BME280;29430;52.924;-2.388;2023-07-30T14:28:10;98528.91;;;18.58;71.32
43804;BME280;29430;52.924;-2.388;2023-07-30T14:33:02;98532.31;;;18.50;71.74
43804;BME280;29430;52.924;-2.388;2023-07-30T14:37:54;98533.00;;;18.42;73.21
43804;BME280;29430;52.924;-2.388;2023-07-30T14:42:46;98527.00;;;18.40;74.17
43804;BME280;29430;52.924;-2.388;2023-07-30T14:47:38;98521.72;;;18.43;74.42
43804;BME280;29430;52.924;-2.388;2023-07-30T14:52:30;98514.38;;;18.39;74.79
43804;BME280;29430;52.924;-2.388;2023-07-30T14:57:23;98524.13;;;18.31;73.89
43804;BME280;29430;52.924;-2.388;2023-07-30T15:02:15;98517.97;;;18.20;75.61
43804;BME280;29430;52.924;-2.388;2023-07-30T15:07:07;98521.69;;;18.11;74.70
43804;BME280;29430;52.924;-2.388;2023-07-30T15:12:01;98517.75;;;17.98;73.68
43804;BME280;29430;52.924;-2.388;2023-07-30T15:16:54;98518.13;;;17.91;77.00
43804;BME280;29430;52.924;-2.388;2023-07-30T15:21:46;98526.41;;;17.86;76.81
43804;BME280;29430;52.924;-2.388;2023-07-30T15:26:38;98528.00;;;17.87;76.35
43804;BME280;29430;52.924;-2.388;2023-07-30T15:31:30;98514.06;;;17.83;77.91
43804;BME280;29430;52.924;-2.388;2023-07-30T15:36:24;98518.16;;;17.86;78.22
43804;BME280;29430;52.924;-2.388;2023-07-30T15:41:16;98521.25;;;17.79;78.19
43804;BME280;29430;52.924;-2.388;2023-07-30T15:46:08;98507.75;;;17.64;79.21
43804;BME280;29430;52.924;-2.388;2023-07-30T15:51:02;98504.84;;;17.55;79.95
43804;BME280;29430;52.924;-2.388;2023-07-30T15:55:54;98510.09;;;17.51;81.03
43804;BME280;29430;52.924;-2.388;2023-07-30T16:00:47;98498.50;;;17.60;82.47
43804;BME280;29430;52.924;-2.388;2023-07-30T16:05:46;98500.19;;;17.56;82.48
43804;BME280;29430;52.924;-2.388;2023-07-30T16:10:38;98496.94;;;17.53;83.67
43804;BME280;29430;52.924;-2.388;2023-07-30T16:15:29;98494.47;;;17.52;84.63
43804;BME280;29430;52.924;-2.388;2023-07-30T16:20:22;98494.47;;;17.52;84.00
43804;BME280;29430;52.924;-2.388;2023-07-30T16:25:14;98486.09;;;17.43;85.39
43804;BME280;29430;52.924;-2.388;2023-07-30T16:30:06;98481.69;;;17.42;86.07
43804;BME280;29430;52.924;-2.388;2023-07-30T16:34:58;98476.59;;;17.35;87.06
43804;BME280;29430;52.924;-2.388;2023-07-30T16:39:50;98473.63;;;17.32;87.65
43804;BME280;29430;52.924;-2.388;2023-07-30T16:44:46;98464.41;;;17.23;89.52
43804;BME280;29430;52.924;-2.388;2023-07-30T16:49:39;98466.59;;;17.21;89.40
43804;BME280;29430;52.924;-2.388;2023-07-30T16:54:31;98464.47;;;17.17;90.24
43804;BME280;29430;52.924;-2.388;2023-07-30T16:59:24;98462.31;;;17.14;90.50
43804;BME280;29430;52.924;-2.388;2023-07-30T17:04:15;98465.69;;;17.06;91.44
43804;BME280;29430;52.924;-2.388;2023-07-30T17:09:07;98459.28;;;16.92;92.53
43804;BME280;29430;52.924;-2.388;2023-07-30T17:13:59;98455.47;;;16.88;92.65
43804;BME280;29430;52.924;-2.388;2023-07-30T17:18:51;98455.78;;;16.86;94.14
43804;BME280;29430;52.924;-2.388;2023-07-30T17:23:43;98447.34;;;16.77;95.36
43804;BME280;29430;52.924;-2.388;2023-07-30T17:28:35;98445.72;;;16.76;96.12
43804;BME280;29430;52.924;-2.388;2023-07-30T17:33:27;98438.25;;;16.82;96.91
43804;BME280;29430;52.924;-2.388;2023-07-30T17:38:19;98439.09;;;16.82;97.61
43804;BME280;29430;52.924;-2.388;2023-07-30T17:43:11;98435.50;;;16.82;97.62
43804;BME280;29430;52.924;-2.388;2023-07-30T17:48:03;98433.88;;;16.86;98.84
43804;BME280;29430;52.924;-2.388;2023-07-30T17:52:54;98431.38;;;16.85;99.71
43804;BME280;29430;52.924;-2.388;2023-07-30T17:57:46;98426.50;;;16.81;99.92
43804;BME280;29430;52.924;-2.388;2023-07-30T18:02:38;98416.63;;;16.80;100.00
43804;BME280;29430;52.924;-2.388;2023-07-30T18:07:29;98416.13;;;16.78;100.00
43804;BME280;29430;52.924;-2.388;2023-07-30T18:12:21;98410.94;;;16.77;100.00
43804;BME280;29430;52.924;-2.388;2023-07-30T18:17:13;98409.84;;;16.78;100.00
43804;BME280;29430;52.924;-2.388;2023-07-30T18:22:05;98411.22;;;16.75;100.00
43804;BME280;29430;52.924;-2.388;2023-07-30T18:26:57;98415.91;;;16.75;100.00
43804;BME280;29430;52.924;-2.388;2023-07-30T18:31:49;98422.19;;;16.75;100.00
43804;BME280;29430;52.924;-2.388;2023-07-30T18:36:41;98426.50;;;16.81;100.00
43804;BME280;29430;52.924;-2.388;2023-07-30T18:41:33;98409.72;;;16.88;100.00
43804;BME280;29430;52.924;-2.388;2023-07-30T18:46:25;98403.19;;;16.84;100.00
43804;BME280;29430;52.924;-2.388;2023-07-30T18:51:16;98400.16;;;16.86;100.00
43804;BME280;29430;52.924;-2.388;2023-07-30T18:56:08;98400.16;;;16.86;100.00
43804;BME280;29430;52.924;-2.388;2023-07-30T19:01:00;98396.88;;;16.89;100.00
43804;BME280;29430;52.924;-2.388;2023-07-30T19:05:55;98394.66;;;16.91;100.00
43804;BME280;29430;52.924;-2.388;2023-07-30T19:10:51;98381.25;;;16.89;100.00
43804;BME280;29430;52.924;-2.388;2023-07-30T19:15:44;98371.09;;;16.90;100.00
43804;BME280;29430;52.924;-2.388;2023-07-30T19:20:36;98368.66;;;16.88;100.00
43804;BME280;29430;52.924;-2.388;2023-07-30T19:25:28;98369.50;;;16.83;100.00
43804;BME280;29430;52.924;-2.388;2023-07-30T19:30:19;98369.22;;;16.85;100.00
43804;BME280;29430;52.924;-2.388;2023-07-30T19:35:11;98368.69;;;16.83;100.00
43804;BME280;29430;52.924;-2.388;2023-07-30T19:40:03;98363.81;;;16.80;100.00
43804;BME280;29430;52.924;-2.388;2023-07-30T19:44:58;98360.28;;;16.74;100.00
43804;BME280;29430;52.924;-2.388;2023-07-30T19:49:50;98360.88;;;16.71;100.00
43804;BME280;29430;52.924;-2.388;2023-07-30T19:54:42;98355.69;;;16.70;100.00
43804;BME280;29430;52.924;-2.388;2023-07-30T19:59:34;98349.00;;;16.57;100.00
43804;BME280;29430;52.924;-2.388;2023-07-30T20:04:26;98361.34;;;16.54;100.00
43804;BME280;29430;52.924;-2.388;2023-07-30T20:09:18;98356.16;;;16.53;100.00
43804;BME280;29430;52.924;-2.388;2023-07-30T20:14:10;98350.75;;;16.47;100.00
43804;BME280;29430;52.924;-2.388;2023-07-30T20:19:02;98342.59;;;16.42;100.00
43804;BME280;29430;52.924;-2.388;2023-07-30T20:23:54;98339.31;;;16.40;100.00
43804;BME280;29430;52.924;-2.388;2023-07-30T20:28:50;98339.31;;;16.40;100.00
43804;BME280;29430;52.924;-2.388;2023-07-30T20:33:42;98333.03;;;16.40;100.00
43804;BME280;29430;52.924;-2.388;2023-07-30T20:38:34;98336.34;;;16.37;100.00
43804;BME280;29430;52.924;-2.388;2023-07-30T20:43:25;98335.31;;;16.33;100.00
43804;BME280;29430;52.924;-2.388;2023-07-30T20:48:17;98314.53;;;16.32;100.00
43804;BME280;29430;52.924;-2.388;2023-07-30T20:53:09;98312.91;;;16.31;100.00
43804;BME280;29430;52.924;-2.388;2023-07-30T20:58:01;98295.72;;;16.25;100.00
43804;BME280;29430;52.924;-2.388;2023-07-30T21:02:53;98293.31;;;16.18;100.00
43804;BME280;29430;52.924;-2.388;2023-07-30T21:07:44;98287.06;;;16.18;100.00
43804;BME280;29430;52.924;-2.388;2023-07-30T21:12:36;98287.63;;;16.15;100.00
43804;BME280;29430;52.924;-2.388;2023-07-30T21:17:30;98270.16;;;16.10;100.00
43804;BME280;29430;52.924;-2.388;2023-07-30T21:22:22;98260.88;;;16.06;100.00
43804;BME280;29430;52.924;-2.388;2023-07-30T21:27:13;98259.78;;;16.07;100.00
43804;BME280;29430;52.924;-2.388;2023-07-30T21:32:05;98254.31;;;16.07;100.00
43804;BME280;29430;52.924;-2.388;2023-07-30T21:36:57;98254.09;;;16.04;100.00
43804;BME280;29430;52.924;-2.388;2023-07-30T21:41:49;98236.34;;;16.01;100.00
43804;BME280;29430;52.924;-2.388;2023-07-30T21:46:42;98223.75;;;16.00;100.00
43804;BME280;29430;52.924;-2.388;2023-07-30T21:51:34;98215.84;;;15.99;100.00
43804;BME280;29430;52.924;-2.388;2023-07-30T21:56:25;98219.41;;;15.99;100.00
43804;BME280;29430;52.924;-2.388;2023-07-30T22:01:17;98207.41;;;15.95;100.00
43804;BME280;29430;52.924;-2.388;2023-07-30T22:06:09;98207.41;;;15.95;100.00
43804;BME280;29430;52.924;-2.388;2023-07-30T22:11:01;98190.50;;;15.93;100.00
43804;BME280;29430;52.924;-2.388;2023-07-30T22:15:52;98193.47;;;15.97;100.00
43804;BME280;29430;52.924;-2.388;2023-07-30T22:20:44;98185.53;;;15.95;100.00
43804;BME280;29430;52.924;-2.388;2023-07-30T22:25:36;98176.81;;;15.93;100.00
43804;BME280;29430;52.924;-2.388;2023-07-30T22:30:28;98170.53;;;15.92;100.00
43804;BME280;29430;52.924;-2.388;2023-07-30T22:35:20;98168.06;;;15.91;100.00
43804;BME280;29430;52.924;-2.388;2023-07-30T22:40:11;98164.75;;;15.94;100.00
43804;BME280;29430;52.924;-2.388;2023-07-30T22:45:08;98153.59;;;15.90;100.00
43804;BME280;29430;52.924;-2.388;2023-07-30T22:50:00;98159.59;;;15.92;100.00
43804;BME280;29430;52.924;-2.388;2023-07-30T22:54:52;98152.50;;;15.91;100.00
43804;BME280;29430;52.924;-2.388;2023-07-30T22:59:44;98148.13;;;15.90;100.00
43804;BME280;29430;52.924;-2.388;2023-07-30T23:04:35;98141.03;;;15.89;100.00
43804;BME280;29430;52.924;-2.388;2023-07-30T23:09:27;98135.84;;;15.88;100.00
43804;BME280;29430;52.924;-2.388;2023-07-30T23:14:19;98134.75;;;15.89;100.00
43804;BME280;29430;52.924;-2.388;2023-07-30T23:19:11;98142.66;;;15.90;100.00
43804;BME280;29430;52.924;-2.388;2023-07-30T23:24:03;98136.38;;;15.90;100.00
43804;BME280;29430;52.924;-2.388;2023-07-30T23:28:55;98138.53;;;15.93;100.00
43804;BME280;29430;52.924;-2.388;2023-07-30T23:33:47;98133.59;;;15.95;100.00
43804;BME280;29430;52.924;-2.388;2023-07-30T23:38:39;98130.84;;;15.95;100.00
43804;BME280;29430;52.924;-2.388;2023-07-30T23:43:32;98130.25;;;15.98;100.00
43804;BME280;29430;52.924;-2.388;2023-07-30T23:48:23;98132.72;;;16.00;100.00
43804;BME280;29430;52.924;-2.388;2023-07-30T23:53:15;98135.66;;;16.03;100.00
43804;BME280;29430;52.924;-2.388;2023-07-30T23:58:07;98131.03;;;16.04;100.00
